SWR2120 LSZH-LEMG
Flight info
| Callsign | SWR2120 |
|---|---|
| Flight time | N/A |
| Altitude | 33000 |
| Route | VEBIT1T VEBIT T50 ROTOS Z669 ULMES DCT VADAR DCT NINTU/N0450F350 DCT MEBAK DCT REPSI DCT LERGA DCT MINSO DCT NARAK DCT AGN/N0460F370 DCT MAQAB DCT TIVLI DCT ELSAP DCT ZAR DCT EXEMU DCT PISUS DCT EDIMU DCT ADUXO DCT NUSGO DCT OBIBO DCT NASOS DCT ANZAN DCT BLN BLN2R |
| Aircraft | A21N/M-SDE3FGHIRWY/LB1 |
Departure
| Time | 2026-05-04 07:57 |
|---|---|
| Airport | Zürich Airport (LSZH) |
Arrival
| Time | N/A |
|---|---|
| Airport | Málaga-Costa del Sol Airport (LEMG) |
| Time | Latitude | Longitude | Altitude | Speed | Heading |
|---|---|---|---|---|---|
| 2026-05-04 07:23 | 47.46153 | 8.55779 | 1392 ft | 0 kts | 187° |
| 2026-05-04 07:47 | 47.46156 | 8.55780 | 1392 ft | 2 kts | 187° |
| 2026-05-04 07:49 | 47.46192 | 8.55854 | 1393 ft | 0 kts | 278° |
| 2026-05-04 07:50 | 47.46193 | 8.55850 | 1393 ft | 1 kts | 278° |
| 2026-05-04 07:50 | 47.46197 | 8.55823 | 1393 ft | 4 kts | 287° |
| 2026-05-04 07:51 | 47.46208 | 8.55769 | 1391 ft | 6 kts | 287° |
| 2026-05-04 07:51 | 47.46223 | 8.55697 | 1390 ft | 9 kts | 290° |
| 2026-05-04 07:51 | 47.46235 | 8.55598 | 1389 ft | 9 kts | 276° |
| 2026-05-04 07:51 | 47.46250 | 8.55490 | 1387 ft | 11 kts | 283° |
| 2026-05-04 07:52 | 47.46260 | 8.55373 | 1386 ft | 11 kts | 274° |
| 2026-05-04 07:52 | 47.46271 | 8.55243 | 1384 ft | 13 kts | 278° |
| 2026-05-04 07:52 | 47.46282 | 8.55106 | 1384 ft | 13 kts | 275° |
| 2026-05-04 07:52 | 47.46291 | 8.54972 | 1383 ft | 13 kts | 275° |
| 2026-05-04 07:53 | 47.46300 | 8.54828 | 1380 ft | 14 kts | 278° |
| 2026-05-04 07:54 | 47.46827 | 8.54395 | 1378 ft | 12 kts | 337° |
| 2026-05-04 07:55 | 47.46905 | 8.54344 | 1379 ft | 11 kts | 330° |
| 2026-05-04 07:55 | 47.46972 | 8.54272 | 1379 ft | 11 kts | 321° |
| 2026-05-04 07:55 | 47.47022 | 8.54178 | 1377 ft | 11 kts | 292° |
| 2026-05-04 07:55 | 47.47015 | 8.54064 | 1377 ft | 11 kts | 244° |
| 2026-05-04 07:56 | 47.46954 | 8.54032 | 1377 ft | 10 kts | 172° |
| 2026-05-04 07:56 | 47.46875 | 8.54072 | 1377 ft | 25 kts | 160° |
| 2026-05-04 07:56 | 47.46436 | 8.54367 | 1381 ft | 110 kts | 156° |
| 2026-05-04 07:56 | 47.45501 | 8.55043 | 1386 ft | 179 kts | 156° |
| 2026-05-04 07:57 | 47.44320 | 8.55780 | 2091 ft | 186 kts | 156° |
| 2026-05-04 07:57 | 47.43328 | 8.56838 | 2937 ft | 176 kts | 123° |
| 2026-05-04 07:57 | 47.43000 | 8.58544 | 3368 ft | 179 kts | 86° |
| 2026-05-04 07:57 | 47.43462 | 8.60305 | 3613 ft | 196 kts | 49° |
| 2026-05-04 07:58 | 47.44692 | 8.61376 | 3913 ft | 216 kts | 8° |
| 2026-05-04 07:58 | 47.46219 | 8.60928 | 4272 ft | 236 kts | 328° |
| 2026-05-04 07:58 | 47.47253 | 8.59014 | 4814 ft | 248 kts | 288° |
| 2026-05-04 07:58 | 47.47292 | 8.56504 | 5510 ft | 252 kts | 256° |
| 2026-05-04 07:59 | 47.46683 | 8.54048 | 6231 ft | 254 kts | 246° |
| 2026-05-04 07:59 | 47.45814 | 8.51683 | 6746 ft | 267 kts | 238° |
| 2026-05-04 07:59 | 47.44794 | 8.49315 | 7176 ft | 282 kts | 237° |
| 2026-05-04 07:59 | 47.43749 | 8.46836 | 7855 ft | 287 kts | 238° |
| 2026-05-04 08:00 | 47.42736 | 8.44332 | 8614 ft | 288 kts | 238° |
| 2026-05-04 08:00 | 47.41721 | 8.41752 | 9352 ft | 290 kts | 238° |
| 2026-05-04 08:00 | 47.40718 | 8.39169 | 10055 ft | 292 kts | 238° |